Time;durP1;ratioP1;P1;durP2;ratioP2;P2;SDS_P1;SDS_P2;PMS_P1;PMS_P2;Temp;Humidity;BMP_temperature;BMP_pressure;BME280_temperature;BME280_humidity;BME280_pressure;Samples;Min_cycle;Max_cycle;Signal;HPM_P1;HPM_P2
2023/09/22 00:01:30;;;;;;;4.00;1.40;;;20.40;75.80;;;;;;10449113;28;20087;-58
2023/09/22 00:06:31;;;;;;;2.88;1.30;;;20.40;75.70;;;;;;10449514;28;20033;-58
2023/09/22 00:11:32;;;;;;;1.48;1.17;;;20.40;75.80;;;;;;10448728;28;20040;-58
2023/09/22 00:16:34;;;;;;;3.20;1.08;;;20.40;75.70;;;;;;10479550;28;20040;-57
2023/09/22 00:21:35;;;;;;;2.38;1.05;;;20.40;75.70;;;;;;10490723;28;20055;-58
2023/09/22 00:26:36;;;;;;;1.92;1.45;;;20.40;75.70;;;;;;10490200;28;20039;-58
2023/09/22 00:31:36;;;;;;;2.08;1.10;;;20.40;75.70;;;;;;10478438;28;20033;-58
2023/09/22 00:36:37;;;;;;;2.40;1.40;;;20.40;75.70;;;;;;10456176;28;20028;-58
2023/09/22 00:41:38;;;;;;;2.80;1.60;;;20.40;75.70;;;;;;10457436;28;20040;-58
2023/09/22 00:46:39;;;;;;;3.00;1.50;;;20.40;75.70;;;;;;10456319;28;20051;-58
2023/09/22 00:51:40;;;;;;;2.25;1.30;;;20.30;75.70;;;;;;10477628;28;20029;-58
2023/09/22 00:56:41;;;;;;;3.30;1.40;;;20.30;75.70;;;;;;10464077;28;20029;-58
2023/09/22 01:01:45;;;;;;;2.25;1.55;;;20.30;75.70;;;;;;10454929;28;20402;-58
2023/09/22 01:06:46;;;;;;;2.50;1.60;;;20.30;75.60;;;;;;10484215;28;20040;-59
2023/09/22 01:11:47;;;;;;;1.80;1.23;;;20.30;75.60;;;;;;10496196;28;20751;-58
2023/09/22 01:16:50;;;;;;;2.42;2.05;;;20.30;75.60;;;;;;10472214;28;20052;-56
2023/09/22 01:21:51;;;;;;;2.97;1.83;;;20.30;75.50;;;;;;10454513;28;20158;-59
2023/09/22 01:26:52;;;;;;;2.45;1.52;;;20.30;75.50;;;;;;10454592;28;20181;-58
2023/09/22 01:31:52;;;;;;;2.90;1.90;;;20.30;75.50;;;;;;10466068;28;20037;-58
2023/09/22 01:36:53;;;;;;;3.03;2.00;;;20.30;75.50;;;;;;10472552;28;20028;-58
2023/09/22 01:41:54;;;;;;;3.00;1.90;;;20.30;75.50;;;;;;10462580;28;20109;-58
2023/09/22 01:46:55;;;;;;;2.78;1.70;;;20.30;75.50;;;;;;10453376;28;20033;-57
2023/09/22 01:51:56;;;;;;;1.95;1.77;;;20.30;75.50;;;;;;10452762;28;20051;-57
2023/09/22 01:56:56;;;;;;;3.70;2.35;;;20.30;75.50;;;;;;10452995;28;20526;-58
2023/09/22 02:01:57;;;;;;;2.85;2.08;;;20.30;75.50;;;;;;10452534;28;20032;-58
2023/09/22 02:06:58;;;;;;;3.15;2.13;;;20.20;75.50;;;;;;10453295;28;20021;-58
2023/09/22 02:11:59;;;;;;;4.45;2.30;;;20.30;75.50;;;;;;10451956;28;20021;-58
2023/09/22 02:16:59;;;;;;;2.65;2.13;;;20.20;75.40;;;;;;10463928;28;20384;-56
2023/09/22 02:22:00;;;;;;;2.13;1.58;;;20.30;75.50;;;;;;10492745;28;20029;-58
2023/09/22 02:27:02;;;;;;;3.63;2.25;;;20.30;75.40;;;;;;10493013;28;20604;-58
2023/09/22 02:32:03;;;;;;;3.88;1.67;;;20.30;75.40;;;;;;10469943;28;20044;-58
2023/09/22 02:37:04;;;;;;;3.35;1.88;;;20.30;75.40;;;;;;10451940;28;20479;-57
2023/09/22 02:42:04;;;;;;;3.35;2.47;;;20.30;75.30;;;;;;10451031;28;20037;-57
2023/09/22 02:47:05;;;;;;;3.10;1.85;;;20.20;75.20;;;;;;10449661;28;20037;-58
2023/09/22 02:52:06;;;;;;;2.58;1.70;;;20.20;75.20;;;;;;10449746;28;20641;-58
2023/09/22 02:57:07;;;;;;;3.08;1.92;;;20.20;75.20;;;;;;10450289;28;20032;-58
2023/09/22 03:02:08;;;;;;;2.80;1.73;;;20.20;75.20;;;;;;10450216;28;20029;-57
2023/09/22 03:07:08;;;;;;;2.28;1.90;;;20.20;75.20;;;;;;10450626;28;20079;-56
2023/09/22 03:12:09;;;;;;;2.63;1.50;;;20.20;75.20;;;;;;10449813;28;20075;-58
2023/09/22 03:17:10;;;;;;;2.70;2.00;;;20.20;75.20;;;;;;10450011;28;20504;-58
2023/09/22 03:22:11;;;;;;;3.90;2.40;;;20.20;75.20;;;;;;10449373;28;20024;-58
2023/09/22 03:27:11;;;;;;;2.97;1.67;;;20.20;75.20;;;;;;10450138;28;20021;-57
2023/09/22 03:32:14;;;;;;;2.45;1.50;;;20.20;75.20;;;;;;10462616;28;20025;-58
2023/09/22 03:37:14;;;;;;;2.60;1.83;;;20.20;75.20;;;;;;10449592;28;20561;-58
2023/09/22 03:42:15;;;;;;;2.70;1.58;;;20.10;75.10;;;;;;10449302;28;20086;-58
2023/09/22 03:47:16;;;;;;;2.78;1.92;;;20.20;75.10;;;;;;10449546;28;20033;-58
2023/09/22 03:52:17;;;;;;;2.90;1.90;;;20.20;75.20;;;;;;10449377;28;20468;-58
2023/09/22 03:57:18;;;;;;;3.30;1.80;;;20.20;75.10;;;;;;10447476;28;20029;-57
2023/09/22 04:02:20;;;;;;;2.10;1.48;;;20.10;75.00;;;;;;10477476;28;20028;-58
2023/09/22 04:07:20;;;;;;;2.55;1.88;;;20.10;75.10;;;;;;10472658;28;20060;-57
2023/09/22 04:12:21;;;;;;;2.60;1.92;;;20.10;75.00;;;;;;10456842;28;20375;-57
2023/09/22 04:17:22;;;;;;;2.60;1.73;;;20.10;75.00;;;;;;10482137;28;20044;-58
2023/09/22 04:22:22;;;;;;;2.17;1.55;;;20.10;75.00;;;;;;10457127;28;20028;-58
2023/09/22 04:27:28;;;;;;;2.50;1.77;;;20.10;75.60;;;;;;10456397;28;20029;-58
2023/09/22 04:32:33;;;;;;;2.70;1.70;;;20.10;74.90;;;;;;10473950;28;20037;-57
2023/09/22 04:37:34;;;;;;;2.95;1.60;;;20.10;74.90;;;;;;10455566;28;20442;-57
2023/09/22 04:42:35;;;;;;;2.88;1.90;;;20.10;74.90;;;;;;10456273;28;20029;-58
2023/09/22 04:47:35;;;;;;;2.38;1.67;;;20.10;74.90;;;;;;10481278;28;20036;-58
2023/09/22 04:52:36;;;;;;;3.38;1.70;;;20.10;74.90;;;;;;10497143;28;20033;-58
2023/09/22 04:57:37;;;;;;;3.75;1.88;;;20.10;74.80;;;;;;10457272;28;20032;-58
2023/09/22 05:02:38;;;;;;;2.65;1.92;;;20.10;74.80;;;;;;10467713;28;20039;-57
2023/09/22 05:07:39;;;;;;;5.85;2.88;;;20.10;74.90;;;;;;10455180;28;20055;-56
2023/09/22 05:12:39;;;;;;;3.15;1.90;;;20.20;74.90;;;;;;10454461;28;20033;-58
2023/09/22 05:17:40;;;;;;;7.43;2.05;;;20.40;75.30;;;;;;10471273;28;20102;-57
2023/09/22 05:22:42;;;;;;;5.60;2.38;;;20.50;74.70;;;;;;10493533;28;20036;-57
2023/09/22 05:27:46;;;;;;;3.67;1.40;;;20.50;74.70;;;;;;10460313;28;20083;-57
2023/09/22 05:32:47;;;;;;;10.07;2.65;;;20.50;75.00;;;;;;10466385;28;20504;-57
2023/09/22 05:37:50;;;;;;;6.72;2.35;;;20.50;74.80;;;;;;10471742;28;20021;-57
2023/09/22 05:42:51;;;;;;;12.82;4.43;;;20.50;74.80;;;;;;10466965;28;20693;-58
2023/09/22 05:47:52;;;;;;;8.30;2.72;;;20.50;74.70;;;;;;10471032;28;20028;-57
2023/09/22 05:52:52;;;;;;;13.52;4.40;;;20.40;74.80;;;;;;10485463;28;20093;-57
2023/09/22 05:57:53;;;;;;;9.05;2.58;;;20.40;75.10;;;;;;10465164;28;20032;-58
2023/09/22 06:02:54;;;;;;;21.33;5.00;;;20.30;75.00;;;;;;10452362;28;20188;-58
2023/09/22 06:07:55;;;;;;;16.33;3.75;;;20.40;75.00;;;;;;10451915;28;20060;-60
2023/09/22 06:12:57;;;;;;;11.77;2.53;;;20.30;75.00;;;;;;10471037;28;20112;-57
2023/09/22 06:17:58;;;;;;;8.88;2.97;;;20.30;74.80;;;;;;10470247;28;20453;-57
2023/09/22 06:22:59;;;;;;;9.23;2.58;;;20.30;75.00;;;;;;10493177;28;20107;-57
2023/09/22 06:28:00;;;;;;;12.48;3.83;;;20.20;75.00;;;;;;10493647;28;20040;-57
2023/09/22 06:33:04;;;;;;;4.78;2.47;;;20.20;75.00;;;;;;10459684;28;20553;-57
2023/09/22 06:38:06;;;;;;;10.48;2.67;;;20.20;75.00;;;;;;10463560;28;20480;-57
2023/09/22 06:43:08;;;;;;;8.23;3.08;;;20.20;74.90;;;;;;10450513;28;20514;-57
2023/09/22 06:48:09;;;;;;;6.35;2.40;;;20.20;74.80;;;;;;10448477;28;20095;-55
2023/09/22 06:53:11;;;;;;;6.68;2.17;;;20.20;75.10;;;;;;10454678;28;20033;-57
2023/09/22 06:58:12;;;;;;;9.02;3.10;;;20.20;74.90;;;;;;10479679;28;20035;-57
2023/09/22 07:03:13;;;;;;;8.77;2.92;;;20.20;74.90;;;;;;10476347;28;20044;-57
2023/09/22 07:08:14;;;;;;;13.07;3.05;;;20.20;74.90;;;;;;10490166;28;20033;-56
2023/09/22 07:13:15;;;;;;;7.70;2.42;;;20.20;75.00;;;;;;10490633;28;20033;-56
2023/09/22 07:18:15;;;;;;;8.30;3.20;;;20.20;75.00;;;;;;10489359;28;20044;-57
2023/09/22 07:23:16;;;;;;;15.50;2.45;;;20.20;75.00;;;;;;10474669;28;20029;-56
2023/09/22 07:28:17;;;;;;;8.07;2.00;;;20.30;75.20;;;;;;10493684;28;20333;-57
2023/09/22 07:33:18;;;;;;;7.38;2.83;;;20.20;75.20;;;;;;10473036;28;20036;-56
2023/09/22 07:38:19;;;;;;;6.18;2.60;;;20.30;75.10;;;;;;10454650;28;20047;-55
2023/09/22 07:43:20;;;;;;;7.95;2.63;;;20.30;75.20;;;;;;10461995;28;20103;-57
2023/09/22 07:48:20;;;;;;;7.97;2.63;;;20.20;75.20;;;;;;10469119;28;20053;-57
2023/09/22 07:53:21;;;;;;;6.40;2.03;;;20.30;75.90;;;;;;10462914;28;20388;-56
2023/09/22 07:58:22;;;;;;;7.43;2.42;;;20.30;75.00;;;;;;10462874;28;20021;-57
2023/09/22 08:03:23;;;;;;;6.05;2.08;;;20.20;74.90;;;;;;10462608;28;20041;-56
2023/09/22 08:08:24;;;;;;;12.32;2.70;;;20.20;74.80;;;;;;10461248;28;20041;-57
2023/09/22 08:13:25;;;;;;;6.88;1.88;;;20.20;74.70;;;;;;10462336;28;20039;-57
2023/09/22 08:18:26;;;;;;;7.22;2.33;;;20.20;74.70;;;;;;10485232;28;20049;-57
2023/09/22 08:23:27;;;;;;;7.20;2.33;;;20.30;74.80;;;;;;10502835;28;20033;-56
2023/09/22 08:28:28;;;;;;;7.53;2.35;;;20.30;75.00;;;;;;10472558;28;20406;-57
2023/09/22 08:33:29;;;;;;;7.22;1.70;;;20.30;74.80;;;;;;10463161;28;20031;-56
2023/09/22 08:38:34;;;;;;;10.02;3.00;;;20.30;74.80;;;;;;10461038;28;20033;-57
2023/09/22 08:43:35;;;;;;;7.38;1.90;;;20.30;74.70;;;;;;10478156;28;20032;-55
2023/09/22 08:48:36;;;;;;;7.15;2.45;;;20.40;75.00;;;;;;10479283;28;20220;-57
2023/09/22 08:53:37;;;;;;;6.72;1.90;;;20.40;74.70;;;;;;10487741;28;20380;-58
2023/09/22 08:58:37;;;;;;;4.80;2.30;;;20.30;74.60;;;;;;10494016;28;20471;-58
2023/09/22 09:03:39;;;;;;;7.55;2.63;;;20.30;74.70;;;;;;10477396;28;20541;-58
2023/09/22 09:08:40;;;;;;;8.60;1.88;;;20.30;74.80;;;;;;10477345;28;20218;-57
2023/09/22 09:13:40;;;;;;;4.00;1.63;;;20.30;74.50;;;;;;10471656;28;20035;-58
2023/09/22 09:18:41;;;;;;;4.20;1.90;;;20.40;74.60;;;;;;10463265;28;20041;-58
2023/09/22 09:23:55;;;;;;;5.50;2.00;;;20.40;74.60;;;;;;10489028;28;20029;-57
2023/09/22 09:28:56;;;;;;;3.50;1.50;;;20.40;74.30;;;;;;10478645;28;20094;-59
2023/09/22 09:33:57;;;;;;;5.43;1.92;;;20.40;74.40;;;;;;10472353;28;20033;-57
2023/09/22 09:38:59;;;;;;;4.03;1.33;;;20.50;74.10;;;;;;10494064;28;20045;-58
2023/09/22 09:44:03;;;;;;;6.30;1.73;;;20.50;74.10;;;;;;10494022;28;20476;-58
2023/09/22 09:49:05;;;;;;;6.20;1.52;;;20.50;74.10;;;;;;10456718;28;20132;-58
2023/09/22 09:54:11;;;;;;;3.58;1.80;;;20.50;74.00;;;;;;10467418;28;20029;-57
2023/09/22 09:59:13;;;;;;;6.68;1.23;;;20.60;73.90;;;;;;10451448;28;20360;-57
2023/09/22 10:04:20;;;;;;;2.95;1.20;;;20.50;73.80;;;;;;10452427;28;20032;-59
2023/09/22 10:09:21;;;;;;;5.35;1.10;;;20.50;73.90;;;;;;10469024;28;20487;-59
2023/09/22 10:14:46;;;;;;;3.63;1.38;;;20.50;73.80;;;;;;10462759;28;20060;-57
2023/09/22 10:19:48;;;;;;;2.88;1.10;;;20.60;74.00;;;;;;10445543;28;20045;-58
2023/09/22 10:25:13;;;;;;;5.35;2.08;;;20.50;74.00;;;;;;10450748;28;20567;-58
2023/09/22 10:30:16;;;;;;;6.43;1.33;;;20.50;74.00;;;;;;10456649;28;20033;-58
2023/09/22 10:35:40;;;;;;;7.55;1.38;;;20.50;73.90;;;;;;10450871;28;20079;-57
2023/09/22 10:41:02;;;;;;;6.97;1.48;;;20.50;74.00;;;;;;10450342;28;20029;-58
2023/09/22 10:46:03;;;;;;;5.63;1.40;;;20.60;74.00;;;;;;10450047;28;20035;-57
2023/09/22 10:51:06;;;;;;;4.10;1.48;;;20.60;73.80;;;;;;10449714;28;20032;-58
2023/09/22 10:56:06;;;;;;;5.68;1.60;;;20.70;73.70;;;;;;10450179;28;20037;-59
2023/09/22 11:01:08;;;;;;;3.65;1.15;;;20.70;73.60;;;;;;10449634;28;20090;-57
2023/09/22 11:06:10;;;;;;;2.67;1.25;;;20.70;73.60;;;;;;10463128;28;20029;-59
2023/09/22 11:11:11;;;;;;;2.92;1.15;;;20.70;73.60;;;;;;10448554;28;20063;-57
2023/09/22 11:16:17;;;;;;;2.80;1.95;;;20.60;73.50;;;;;;10454257;28;20049;-58
2023/09/22 11:21:20;;;;;;;2.75;1.17;;;20.60;73.60;;;;;;10454677;28;20228;-59
2023/09/22 11:26:20;;;;;;;3.95;1.23;;;20.60;73.60;;;;;;10449344;28;20481;-58
2023/09/22 11:31:21;;;;;;;1.73;1.05;;;20.60;73.50;;;;;;10460834;28;20030;-58
2023/09/22 11:36:22;;;;;;;2.55;1.20;;;20.70;73.50;;;;;;10485186;28;20029;-58
2023/09/22 11:41:23;;;;;;;1.65;1.13;;;20.70;73.30;;;;;;10490175;28;20025;-59
2023/09/22 11:46:28;;;;;;;3.13;1.48;;;20.70;73.30;;;;;;10451788;28;20177;-59
2023/09/22 11:51:50;;;;;;;2.33;1.00;;;20.70;73.30;;;;;;10466030;28;20036;-59
2023/09/22 11:56:55;;;;;;;2.72;0.98;;;20.70;73.10;;;;;;10448486;28;20025;-58
2023/09/22 12:01:56;;;;;;;2.88;0.70;;;20.70;73.20;;;;;;10448619;28;20025;-58
2023/09/22 12:06:57;;;;;;;2.67;0.80;;;20.70;73.10;;;;;;10448955;28;20638;-58
2023/09/22 12:11:57;;;;;;;1.88;0.80;;;20.80;73.10;;;;;;10447747;28;20525;-59
2023/09/22 12:16:58;;;;;;;2.40;1.45;;;20.80;73.10;;;;;;10459644;28;20063;-59
2023/09/22 12:21:59;;;;;;;2.30;0.90;;;20.80;73.00;;;;;;10489780;28;20222;-59
2023/09/22 12:26:59;;;;;;;3.17;1.42;;;20.80;73.00;;;;;;10462946;28;20025;-57
2023/09/22 12:32:02;;;;;;;2.35;0.90;;;20.80;72.80;;;;;;10468773;28;20388;-57
2023/09/22 12:37:03;;;;;;;4.07;1.42;;;20.80;72.80;;;;;;10456154;28;20039;-58
2023/09/22 12:42:04;;;;;;;3.50;1.20;;;20.70;73.10;;;;;;10476271;28;20633;-58
2023/09/22 12:47:04;;;;;;;3.47;0.77;;;20.70;73.20;;;;;;10496659;28;20067;-58
2023/09/22 12:52:05;;;;;;;3.53;1.00;;;20.60;73.30;;;;;;10495745;28;20460;-57
2023/09/22 12:57:06;;;;;;;2.95;0.90;;;20.60;73.30;;;;;;10496083;28;20078;-57
2023/09/22 13:02:07;;;;;;;4.30;1.35;;;20.60;73.30;;;;;;10495860;28;20029;-57
2023/09/22 13:07:08;;;;;;;2.17;1.30;;;20.60;73.40;;;;;;10495432;28;20021;-58
2023/09/22 13:12:09;;;;;;;3.42;1.40;;;20.50;73.40;;;;;;10494668;28;20040;-57
2023/09/22 13:17:11;;;;;;;3.65;0.93;;;20.50;73.40;;;;;;10468698;28;20041;-57
2023/09/22 13:22:12;;;;;;;2.08;1.05;;;20.50;73.40;;;;;;10453144;28;20036;-58
2023/09/22 13:27:12;;;;;;;2.08;0.85;;;20.50;73.40;;;;;;10468486;28;20668;-57
2023/09/22 13:32:13;;;;;;;1.63;0.90;;;20.50;73.40;;;;;;10464219;28;20025;-57
2023/09/22 13:37:14;;;;;;;1.77;0.90;;;20.50;73.40;;;;;;10452684;28;20032;-56
2023/09/22 13:42:15;;;;;;;2.45;1.10;;;20.50;73.40;;;;;;10452868;28;20710;-58
2023/09/22 13:47:16;;;;;;;2.40;0.70;;;20.50;73.30;;;;;;10453022;28;20029;-57
2023/09/22 13:52:17;;;;;;;2.20;0.98;;;20.50;73.30;;;;;;10453029;28;20036;-59
2023/09/22 13:57:18;;;;;;;4.47;0.90;;;20.50;73.30;;;;;;10452403;28;20036;-58
2023/09/22 14:02:19;;;;;;;8.80;1.83;;;20.70;73.00;;;;;;10452603;28;20051;-60
2023/09/22 14:07:20;;;;;;;11.25;2.00;;;20.70;72.70;;;;;;10466336;28;20047;-58
2023/09/22 14:12:21;;;;;;;9.43;1.67;;;20.60;73.00;;;;;;10470925;28;20033;-57
2023/09/22 14:17:22;;;;;;;5.38;1.77;;;20.60;73.30;;;;;;10458083;28;20029;-58
2023/09/22 14:22:23;;;;;;;6.55;1.45;;;20.50;73.40;;;;;;10466766;28;20123;-57
2023/09/22 14:27:24;;;;;;;5.72;1.20;;;20.50;73.60;;;;;;10479857;28;20036;-58
2023/09/22 14:32:25;;;;;;;7.88;1.40;;;20.50;73.60;;;;;;10464251;28;20041;-58
2023/09/22 14:37:26;;;;;;;5.35;1.30;;;20.50;73.60;;;;;;10471486;28;20017;-58
2023/09/22 14:42:27;;;;;;;14.05;1.55;;;20.50;73.50;;;;;;10480354;28;20033;-58
2023/09/22 14:47:28;;;;;;;7.07;1.90;;;20.60;73.50;;;;;;10475811;28;20032;-57
2023/09/22 14:52:28;;;;;;;5.88;1.70;;;20.50;73.30;;;;;;10489476;28;20064;-59
2023/09/22 14:57:32;;;;;;;8.02;1.80;;;20.60;73.20;;;;;;10485458;28;20041;-59
2023/09/22 15:02:32;;;;;;;12.30;2.00;;;20.60;72.50;;;;;;10474283;28;20033;-59
2023/09/22 15:07:36;;;;;;;7.07;2.70;;;20.50;70.70;;;;;;10472783;28;20036;-59
2023/09/22 15:12:37;;;;;;;8.35;1.80;;;20.60;71.80;;;;;;10479555;28;20115;-59
2023/09/22 15:17:38;;;;;;;13.27;3.58;;;20.50;68.80;;;;;;10456663;28;20033;-59
2023/09/22 15:22:39;;;;;;;9.15;3.78;;;20.60;71.10;;;;;;10471178;28;20029;-58
2023/09/22 15:27:40;;;;;;;6.53;2.53;;;20.50;74.00;;;;;;10473907;28;20059;-58
2023/09/22 15:32:40;;;;;;;7.20;3.25;;;20.60;71.90;;;;;;10473923;28;20118;-57
2023/09/22 15:37:43;;;;;;;8.90;2.58;;;20.70;71.40;;;;;;10466382;28;20021;-56
2023/09/22 15:42:43;;;;;;;11.05;2.63;;;20.80;73.00;;;;;;10457521;28;20078;-58
2023/09/22 15:47:44;;;;;;;13.68;3.38;;;20.90;72.20;;;;;;10461769;28;20484;-57
2023/09/22 15:52:47;;;;;;;8.02;3.33;;;20.80;72.30;;;;;;10452129;28;20040;-57
2023/09/22 15:57:48;;;;;;;13.43;3.58;;;20.90;72.20;;;;;;10467115;28;20558;-56
2023/09/22 16:02:49;;;;;;;14.60;3.67;;;20.90;72.90;;;;;;10480574;28;20033;-55
2023/09/22 16:07:49;;;;;;;9.45;2.80;;;20.80;73.10;;;;;;10461793;28;20021;-57
2023/09/22 16:12:50;;;;;;;13.65;3.35;;;20.80;73.30;;;;;;10457198;28;20460;-57
2023/09/22 16:17:51;;;;;;;12.07;3.35;;;20.80;73.50;;;;;;10472272;28;20432;-58
2023/09/22 16:22:52;;;;;;;14.50;3.03;;;20.90;73.50;;;;;;10470145;28;20036;-59
2023/09/22 16:27:52;;;;;;;9.02;2.88;;;20.80;73.00;;;;;;10472422;28;20423;-57
2023/09/22 16:32:53;;;;;;;7.25;2.35;;;20.70;73.60;;;;;;10470444;28;20041;-58
2023/09/22 16:37:54;;;;;;;9.80;2.72;;;20.60;73.80;;;;;;10459837;28;20387;-58
2023/09/22 16:42:56;;;;;;;8.57;3.38;;;20.60;73.80;;;;;;10467980;28;20035;-59
2023/09/22 16:47:59;;;;;;;23.00;3.53;;;20.60;74.00;;;;;;10464466;28;20384;-56
2023/09/22 16:52:59;;;;;;;17.60;3.05;;;20.60;73.90;;;;;;10453785;28;20074;-58
2023/09/22 16:58:00;;;;;;;16.67;4.47;;;20.60;74.00;;;;;;10467287;28;20036;-58
2023/09/22 17:03:02;;;;;;;21.92;4.45;;;20.60;74.20;;;;;;10469784;28;20033;-57
2023/09/22 17:08:06;;;;;;;31.63;5.80;;;20.60;74.40;;;;;;10453201;28;20033;-58
2023/09/22 17:13:08;;;;;;;28.75;5.20;;;20.60;74.20;;;;;;10452656;28;20021;-58
2023/09/22 17:18:13;;;;;;;21.42;5.28;;;20.60;74.30;;;;;;10455600;28;20068;-57
2023/09/22 17:23:15;;;;;;;17.65;4.65;;;20.50;74.10;;;;;;10461164;28;20025;-60
2023/09/22 17:28:15;;;;;;;29.25;5.45;;;20.50;74.20;;;;;;10464818;28;20028;-59
2023/09/22 17:33:17;;;;;;;33.45;5.70;;;20.50;74.10;;;;;;10489748;28;20033;-57
2023/09/22 17:38:18;;;;;;;33.88;4.60;;;20.50;74.30;;;;;;10471286;28;20068;-57
2023/09/22 17:43:18;;;;;;;19.15;3.65;;;20.50;74.10;;;;;;10472097;28;20048;-57
2023/09/22 17:48:19;;;;;;;20.17;4.43;;;20.50;74.30;;;;;;10464886;28;20029;-58
2023/09/22 17:53:20;;;;;;;13.40;3.90;;;20.50;74.40;;;;;;10468058;28;20412;-57
2023/09/22 17:58:21;;;;;;;16.73;4.05;;;20.50;74.40;;;;;;10471880;28;20060;-58
2023/09/22 18:03:22;;;;;;;14.50;3.90;;;20.50;74.50;;;;;;10454475;28;20437;-57
2023/09/22 18:08:23;;;;;;;14.50;3.15;;;20.50;74.20;;;;;;10449992;28;20503;-57
2023/09/22 18:13:23;;;;;;;16.33;3.42;;;20.50;74.10;;;;;;10454958;28;20039;-57
2023/09/22 18:18:24;;;;;;;12.90;4.95;;;20.50;74.20;;;;;;10468409;28;20412;-57
2023/09/22 18:23:26;;;;;;;9.23;2.95;;;20.50;74.30;;;;;;10476420;28;20034;-56
2023/09/22 18:28:27;;;;;;;6.65;2.72;;;20.50;74.40;;;;;;10480923;28;20051;-57
2023/09/22 18:33:29;;;;;;;14.45;3.25;;;20.50;74.40;;;;;;10477276;28;20109;-56
2023/09/22 18:38:32;;;;;;;11.90;3.03;;;20.40;74.50;;;;;;10450444;28;20522;-58
2023/09/22 18:43:33;;;;;;;11.73;2.83;;;20.40;74.40;;;;;;10456306;28;20123;-57
2023/09/22 18:48:34;;;;;;;13.55;3.80;;;20.50;74.50;;;;;;10448041;28;20690;-58
2023/09/22 18:53:39;;;;;;;7.00;2.40;;;20.50;74.50;;;;;;10448301;28;20438;-57
2023/09/22 18:58:40;;;;;;;13.85;2.85;;;20.50;74.60;;;;;;10455966;28;20037;-58
2023/09/22 19:03:41;;;;;;;6.82;2.63;;;20.40;74.60;;;;;;10447511;28;20029;-56
2023/09/22 19:08:42;;;;;;;10.07;2.83;;;20.40;74.60;;;;;;10446846;28;20017;-56
2023/09/22 19:13:43;;;;;;;6.63;2.70;;;20.50;74.70;;;;;;10446858;28;20031;-57
2023/09/22 19:18:44;;;;;;;12.68;3.92;;;20.50;74.70;;;;;;10446232;28;20044;-57
2023/09/22 19:23:45;;;;;;;5.50;2.28;;;20.50;74.70;;;;;;10449003;28;20559;-57
2023/09/22 19:28:46;;;;;;;21.02;3.30;;;20.40;74.80;;;;;;10456355;28;20427;-58
2023/09/22 19:33:47;;;;;;;11.23;2.97;;;20.50;75.00;;;;;;10446273;28;20044;-57
2023/09/22 19:38:48;;;;;;;7.55;2.40;;;20.50;74.60;;;;;;10446803;28;20040;-57
2023/09/22 19:43:49;;;;;;;6.18;2.58;;;20.40;74.80;;;;;;10482419;28;20020;-58
2023/09/22 19:48:50;;;;;;;6.78;2.15;;;20.40;75.00;;;;;;10490735;28;20037;-58
2023/09/22 19:53:51;;;;;;;5.85;2.30;;;20.40;75.20;;;;;;10491375;28;20056;-58
2023/09/22 19:58:51;;;;;;;4.55;1.88;;;20.30;75.20;;;;;;10490840;28;20021;-57
2023/09/22 20:03:55;;;;;;;5.15;1.83;;;20.30;75.20;;;;;;10490929;28;20106;-57
2023/09/22 20:08:56;;;;;;;7.20;1.80;;;20.30;75.20;;;;;;10451417;28;20036;-58
2023/09/22 20:13:59;;;;;;;4.28;2.03;;;20.30;75.20;;;;;;10449199;28;20025;-57
2023/09/22 20:19:03;;;;;;;6.70;2.65;;;20.30;75.30;;;;;;10477469;28;20503;-57
2023/09/22 20:24:04;;;;;;;5.65;2.00;;;20.30;75.20;;;;;;10490884;28;20040;-58
2023/09/22 20:29:06;;;;;;;5.53;2.25;;;20.30;75.20;;;;;;10491366;28;20116;-58
2023/09/22 20:34:08;;;;;;;5.47;1.98;;;20.30;75.20;;;;;;10449125;28;20040;-57
2023/09/22 20:39:09;;;;;;;4.47;1.55;;;20.30;75.20;;;;;;10448279;28;20541;-57
2023/09/22 20:44:10;;;;;;;3.33;1.90;;;20.20;75.10;;;;;;10451154;28;20604;-58
2023/09/22 20:49:11;;;;;;;4.93;2.22;;;20.20;75.00;;;;;;10488880;28;20029;-58
2023/09/22 20:54:12;;;;;;;4.15;2.17;;;20.20;75.10;;;;;;10497195;28;20029;-58
2023/09/22 20:59:14;;;;;;;6.93;1.90;;;20.20;75.10;;;;;;10457765;28;20025;-57
2023/09/22 21:04:14;;;;;;;3.83;2.17;;;20.20;75.00;;;;;;10469580;28;20037;-57
2023/09/22 21:09:18;;;;;;;5.00;1.60;;;20.20;75.00;;;;;;10469893;28;20029;-57
2023/09/22 21:14:19;;;;;;;5.57;2.35;;;20.20;75.00;;;;;;10492350;28;20025;-57
2023/09/22 21:19:19;;;;;;;3.72;1.40;;;20.20;75.00;;;;;;10467439;28;20045;-58
2023/09/22 21:24:20;;;;;;;5.10;1.73;;;20.20;75.00;;;;;;10454873;28;20112;-58
2023/09/22 21:29:23;;;;;;;4.88;1.88;;;20.20;74.90;;;;;;10473962;28;20033;-58
2023/09/22 21:34:23;;;;;;;4.60;1.50;;;20.20;75.00;;;;;;10454108;28;20036;-57
2023/09/22 21:39:24;;;;;;;3.88;1.42;;;20.10;74.80;;;;;;10453691;28;20441;-58
2023/09/22 21:44:26;;;;;;;4.75;1.35;;;20.10;74.80;;;;;;10453818;28;20021;-57
2023/09/22 21:49:26;;;;;;;2.83;1.33;;;20.10;74.80;;;;;;10453731;28;20171;-58
2023/09/22 21:54:28;;;;;;;4.38;1.58;;;20.10;74.80;;;;;;10452989;28;20058;-58
2023/09/22 21:59:29;;;;;;;3.72;1.63;;;20.10;74.80;;;;;;10453031;28;20029;-57
2023/09/22 22:04:32;;;;;;;2.92;1.77;;;20.10;74.70;;;;;;10452993;28;20037;-57
2023/09/22 22:09:35;;;;;;;4.20;1.80;;;20.10;74.70;;;;;;10452643;28;20033;-58
2023/09/22 22:14:36;;;;;;;2.88;1.50;;;20.10;74.70;;;;;;10452816;28;20025;-58
2023/09/22 22:19:37;;;;;;;3.40;1.58;;;20.10;74.70;;;;;;10485771;28;20040;-57
2023/09/22 22:24:37;;;;;;;2.20;1.27;;;20.10;74.70;;;;;;10457463;28;20108;-57
2023/09/22 22:29:40;;;;;;;4.22;1.15;;;20.00;74.60;;;;;;10464089;28;20036;-57
2023/09/22 22:34:41;;;;;;;3.65;1.13;;;20.00;74.60;;;;;;10451903;28;20466;-58
2023/09/22 22:39:43;;;;;;;2.78;1.50;;;20.00;74.60;;;;;;10451341;28;20102;-57
2023/09/22 22:44:45;;;;;;;2.90;1.10;;;20.00;74.60;;;;;;10451505;28;20035;-58
2023/09/22 22:49:45;;;;;;;2.75;1.35;;;20.00;74.50;;;;;;10450713;28;20107;-57
2023/09/22 22:54:48;;;;;;;3.63;1.58;;;20.00;74.50;;;;;;10450958;28;20369;-58
2023/09/22 22:59:50;;;;;;;1.38;0.93;;;20.00;74.40;;;;;;10451340;28;20032;-58
2023/09/22 23:04:51;;;;;;;3.58;1.30;;;20.00;74.50;;;;;;10450985;28;20068;-58
2023/09/22 23:09:52;;;;;;;1.90;0.88;;;20.00;74.50;;;;;;10449287;28;20846;-58
2023/09/22 23:14:53;;;;;;;2.58;1.20;;;20.00;74.40;;;;;;10450951;28;20035;-57
2023/09/22 23:19:58;;;;;;;1.85;1.02;;;20.00;74.50;;;;;;10485506;28;20526;-58
2023/09/22 23:24:58;;;;;;;1.25;1.00;;;20.00;74.40;;;;;;10491794;28;20064;-57
2023/09/22 23:30:00;;;;;;;2.80;1.27;;;19.90;74.30;;;;;;10485481;28;20033;-58
2023/09/22 23:35:08;;;;;;;2.03;0.95;;;20.00;74.30;;;;;;10449564;28;20048;-57
2023/09/22 23:40:10;;;;;;;1.85;0.90;;;19.90;74.40;;;;;;10467316;28;20491;-58
2023/09/22 23:45:11;;;;;;;2.85;1.40;;;19.90;74.50;;;;;;10491256;28;20029;-58
2023/09/22 23:50:11;;;;;;;2.03;1.08;;;19.90;74.50;;;;;;10490961;28;20387;-58
2023/09/22 23:55:13;;;;;;;3.80;1.08;;;19.90;74.50;;;;;;10476360;28;20082;-56
